Time;durP1;ratioP1;P1;durP2;ratioP2;P2;SDS_P1;SDS_P2;PMS_P1;PMS_P2;Temp;Humidity;BMP_temperature;BMP_pressure;BME280_temperature;BME280_humidity;BME280_pressure;Samples;Min_cycle;Max_cycle;Signal;HPM_P1;HPM_P2
2022/03/29 00:00:55;;;;;;;17.35;8.45;;;;;;;13.15;48.99;96039.43;1684981;84;21116;-80
2022/03/29 00:03:21;;;;;;;12.35;8.45;;;;;;;13.17;48.96;96042.63;1670911;85;21076;-80
2022/03/29 00:05:47;;;;;;;11.18;7.10;;;;;;;13.14;48.87;96040.44;1663692;84;21370;-80
2022/03/29 00:08:12;;;;;;;7.45;6.25;;;;;;;13.11;48.91;96029.11;1679885;84;21064;-80
2022/03/29 00:10:38;;;;;;;12.80;9.25;;;;;;;13.12;48.77;96032.82;1672903;85;21415;-80
2022/03/29 00:13:04;;;;;;;19.50;11.53;;;;;;;13.14;48.68;96036.02;1675480;84;21093;-80
2022/03/29 00:15:29;;;;;;;15.13;9.00;;;;;;;13.13;48.59;96033.12;1682510;84;21415;-80
2022/03/29 00:17:55;;;;;;;23.42;11.40;;;;;;;13.13;48.56;96025.80;1673059;85;21044;-80
2022/03/29 00:20:21;;;;;;;11.53;8.23;;;;;;;13.12;48.46;96021.59;1672951;84;21373;-80
2022/03/29 00:22:47;;;;;;;14.50;8.50;;;;;;;13.11;48.50;96022.09;1689480;84;21112;-81
2022/03/29 00:25:14;;;;;;;9.55;7.25;;;;;;;13.09;48.45;96017.59;1695899;84;21060;-80
2022/03/29 00:27:40;;;;;;;14.43;10.80;;;;;;;13.03;48.43;96013.20;1691765;84;21442;-80
2022/03/29 00:30:08;;;;;;;10.23;7.97;;;;;;;12.98;48.46;96006.98;1683179;84;21055;-80
2022/03/29 00:32:35;;;;;;;19.27;10.38;;;;;;;12.96;48.75;96003.78;1674246;84;20992;-80
2022/03/29 00:35:01;;;;;;;25.68;13.80;;;;;;;12.95;48.77;96000.88;1677257;85;21359;-80
2022/03/29 00:37:27;;;;;;;17.32;10.10;;;;;;;12.95;48.58;95998.27;1673030;85;21083;-80
2022/03/29 00:39:53;;;;;;;17.23;10.35;;;;;;;12.96;48.60;95994.66;1690113;84;21439;-80
2022/03/29 00:42:18;;;;;;;12.33;8.63;;;;;;;12.97;48.51;95990.53;1688685;84;21064;-80
2022/03/29 00:44:45;;;;;;;31.65;21.15;;;;;;;13.00;48.48;95991.42;1684504;84;21065;-80
2022/03/29 00:47:11;;;;;;;37.58;19.25;;;;;;;13.03;48.51;95987.13;1687271;84;21040;-80
2022/03/29 00:49:37;;;;;;;34.23;16.07;;;;;;;13.05;48.36;95975.98;1688824;84;21455;-80
2022/03/29 00:52:04;;;;;;;25.10;15.05;;;;;;;13.09;48.43;95980.27;1678426;85;21015;-80
2022/03/29 00:54:37;;;;;;;19.85;12.33;;;;;;;13.07;48.36;95978.38;1688648;84;21108;-80
2022/03/29 00:57:05;;;;;;;10.65;8.00;;;;;;;13.06;48.45;95978.88;1690445;84;21422;-80
2022/03/29 00:59:30;;;;;;;13.88;9.05;;;;;;;13.06;48.64;96019.31;1688683;85;21000;-80
2022/03/29 01:02:00;;;;;;;15.70;10.98;;;;;;;12.90;47.48;96052.35;1692560;84;21059;-80
2022/03/29 01:04:27;;;;;;;25.82;15.00;;;;;;;12.58;47.56;96032.65;1691669;84;20961;-80
2022/03/29 01:06:58;;;;;;;16.82;11.03;;;;;;;12.33;47.75;96053.29;1691123;84;20984;-81
2022/03/29 01:09:26;;;;;;;16.37;11.30;;;;;;;12.08;48.11;96064.51;1692329;84;21312;-80
2022/03/29 01:11:52;;;;;;;15.78;11.80;;;;;;;11.87;48.51;96057.14;1699766;84;21020;-80
2022/03/29 01:14:21;;;;;;;17.25;11.63;;;;;;;11.72;48.94;96048.20;1693236;84;21359;-80
2022/03/29 01:19:30;;;;;;;15.55;10.38;;;;;;;11.38;49.99;96051.66;1748837;81;21367;-80
2022/03/29 01:21:58;;;;;;;15.95;10.72;;;;;;;11.27;50.91;96044.94;1761667;80;21044;-80
2022/03/29 01:24:25;;;;;;;16.95;10.80;;;;;;;11.20;51.49;96053.19;1763480;81;21111;-80
2022/03/29 01:26:53;;;;;;;13.32;9.73;;;;;;;11.09;51.46;96063.66;1763499;81;21052;-80
2022/03/29 01:29:22;;;;;;;16.77;10.48;;;;;;;11.03;52.33;96057.41;1763363;81;21562;-80
2022/03/29 01:31:49;;;;;;;15.13;11.57;;;;;;;10.98;52.97;96052.49;1684841;85;20953;-80
2022/03/29 01:34:19;;;;;;;13.45;9.80;;;;;;;10.90;53.09;96055.23;1763648;81;22018;-80
2022/03/29 01:36:45;;;;;;;14.35;10.75;;;;;;;10.81;53.48;96059.30;1735776;81;20980;-80
2022/03/29 01:39:10;;;;;;;14.90;10.75;;;;;;;10.75;53.29;96054.88;1733372;82;21375;-80
2022/03/29 01:41:38;;;;;;;14.20;10.50;;;;;;;10.72;53.48;96056.52;1733194;82;21020;-80
2022/03/29 01:44:08;;;;;;;12.80;10.50;;;;;;;10.68;54.18;96046.21;1732871;82;21048;-80
2022/03/29 01:46:34;;;;;;;14.93;12.80;;;;;;;10.66;54.50;96043.50;1733246;83;21028;-80
2022/03/29 01:49:01;;;;;;;15.03;12.18;;;;;;;10.64;54.46;96033.30;1743973;81;21016;-80
2022/03/29 01:51:27;;;;;;;13.45;10.63;;;;;;;10.66;54.46;96030.02;1762247;81;21019;-80
2022/03/29 01:53:56;;;;;;;17.02;11.93;;;;;;;10.66;55.22;96026.61;1745452;81;21159;-81
2022/03/29 01:56:22;;;;;;;14.85;11.90;;;;;;;10.66;54.87;96028.71;1760991;81;21459;-80
2022/03/29 01:58:48;;;;;;;17.30;11.85;;;;;;;10.68;54.79;96028.02;1750120;81;21053;-80
2022/03/29 02:01:13;;;;;;;14.85;11.12;;;;;;;10.67;55.69;96015.22;1733285;81;21166;-80
2022/03/29 02:03:39;;;;;;;16.60;11.03;;;;;;;10.65;55.82;96020.61;1733397;82;21530;-80
2022/03/29 02:06:05;;;;;;;14.13;10.50;;;;;;;10.63;56.35;96012.21;1744014;81;21063;-80
2022/03/29 02:08:30;;;;;;;15.85;11.48;;;;;;;10.58;56.48;96009.39;1762994;81;21009;-80
2022/03/29 02:10:56;;;;;;;16.82;13.00;;;;;;;10.53;56.42;96009.94;1733153;82;21067;-80
2022/03/29 02:13:22;;;;;;;15.13;11.90;;;;;;;10.51;56.32;96005.94;1733211;82;21435;-80
2022/03/29 02:15:48;;;;;;;17.27;12.73;;;;;;;10.48;56.81;96001.92;1715134;83;21037;-80
2022/03/29 02:18:15;;;;;;;15.65;11.53;;;;;;;10.47;57.11;95993.02;1733803;82;21347;-80
2022/03/29 02:20:41;;;;;;;17.35;12.55;;;;;;;10.44;57.43;95989.52;1746947;81;21387;-80
2022/03/29 02:23:08;;;;;;;16.60;11.80;;;;;;;10.41;57.55;95988.57;1766011;81;21135;-80
2022/03/29 02:25:36;;;;;;;17.95;12.28;;;;;;;10.40;57.70;95989.06;1766333;81;21024;-80
2022/03/29 02:28:02;;;;;;;17.77;13.60;;;;;;;10.37;57.70;95988.65;1766343;81;20973;-80
2022/03/29 02:30:28;;;;;;;17.70;12.40;;;;;;;10.35;57.73;95978.45;1766354;81;21068;-80
2022/03/29 02:32:54;;;;;;;18.23;12.23;;;;;;;10.37;58.29;95972.57;1766184;81;21080;-81
2022/03/29 02:35:20;;;;;;;14.87;11.40;;;;;;;10.35;58.28;95973.76;1766369;81;20985;-80
2022/03/29 02:37:46;;;;;;;15.58;11.70;;;;;;;10.33;58.02;95963.56;1766264;81;20913;-80
2022/03/29 02:40:13;;;;;;;14.45;11.08;;;;;;;10.32;58.11;95966.36;1766503;81;20953;-80
2022/03/29 02:42:44;;;;;;;15.45;12.13;;;;;;;10.31;58.32;95963.45;1745194;81;20969;-80
2022/03/29 02:45:16;;;;;;;14.73;12.23;;;;;;;10.29;58.92;95961.55;1736047;82;20996;-81
2022/03/29 02:47:45;;;;;;;15.25;11.70;;;;;;;10.25;59.49;95962.42;1735205;83;21389;-80
2022/03/29 02:50:12;;;;;;;16.07;12.07;;;;;;;10.19;59.40;95963.13;1735464;81;21371;-80
2022/03/29 02:52:50;;;;;;;15.28;10.32;;;;;;;10.20;59.56;95962.14;1757061;80;20984;-80
2022/03/29 02:55:18;;;;;;;15.70;11.60;;;;;;;10.19;60.31;95961.34;1766018;81;21075;-80
2022/03/29 02:57:43;;;;;;;14.30;10.93;;;;;;;10.23;59.91;95959.99;1766131;81;21004;-80
2022/03/29 03:00:12;;;;;;;14.83;11.40;;;;;;;10.28;60.61;95960.74;1686617;85;21005;-81
2022/03/29 03:02:37;;;;;;;15.45;11.43;;;;;;;10.29;60.98;95958.95;1755059;81;21008;-80
2022/03/29 03:05:04;;;;;;;12.47;9.65;;;;;;;10.30;60.31;95961.84;1748192;82;20965;-80
2022/03/29 03:07:29;;;;;;;13.00;9.55;;;;;;;10.33;60.65;95956.27;1765063;81;20992;-80
2022/03/29 03:09:55;;;;;;;10.72;8.25;;;;;;;10.33;60.45;95953.67;1761126;81;21052;-80
2022/03/29 03:12:21;;;;;;;12.30;9.13;;;;;;;10.33;60.39;95954.97;1736028;82;21068;-80
2022/03/29 03:14:48;;;;;;;11.85;8.98;;;;;;;10.30;60.46;95950.97;1747460;81;21004;-80
2022/03/29 03:17:14;;;;;;;12.88;9.23;;;;;;;10.29;60.39;95952.45;1747989;82;21483;-80
2022/03/29 03:19:39;;;;;;;12.18;9.68;;;;;;;10.27;60.43;95950.55;1753011;81;21028;-80
2022/03/29 03:22:05;;;;;;;12.07;8.90;;;;;;;10.22;60.88;95938.91;1765330;81;21104;-80
2022/03/29 03:24:31;;;;;;;12.50;9.08;;;;;;;10.17;60.45;95941.26;1763337;81;21047;-80
2022/03/29 03:26:57;;;;;;;13.15;9.03;;;;;;;10.11;60.73;95942.02;1763563;81;21020;-81
2022/03/29 03:29:22;;;;;;;11.05;8.50;;;;;;;10.06;60.72;95930.09;1746230;81;20913;-80
2022/03/29 03:31:49;;;;;;;10.48;8.50;;;;;;;10.02;60.88;95926.27;1744933;82;21036;-80
2022/03/29 03:34:15;;;;;;;11.10;9.30;;;;;;;10.00;61.09;95925.66;1730280;82;20998;-80
2022/03/29 03:36:41;;;;;;;13.93;9.50;;;;;;;9.96;60.97;95921.84;1749970;82;21004;-80
2022/03/29 03:39:07;;;;;;;12.13;9.30;;;;;;;9.93;61.04;95926.13;1745189;82;20976;-80
2022/03/29 03:41:33;;;;;;;11.78;9.33;;;;;;;9.93;61.23;95925.63;1744279;81;20972;-80
2022/03/29 03:43:58;;;;;;;12.07;9.10;;;;;;;9.92;61.36;95918.83;1747960;81;20944;-80
2022/03/29 03:46:24;;;;;;;11.28;8.80;;;;;;;9.93;61.49;95918.34;1733413;83;21001;-80
2022/03/29 03:48:50;;;;;;;9.48;7.80;;;;;;;9.92;61.53;95909.75;1733376;81;21314;-80
2022/03/29 03:51:16;;;;;;;12.78;8.90;;;;;;;9.92;61.50;95907.63;1735900;80;21123;-80
2022/03/29 03:53:44;;;;;;;10.65;8.88;;;;;;;9.91;61.42;95903.42;1763027;81;21021;-80
2022/03/29 03:56:09;;;;;;;11.90;8.53;;;;;;;9.89;61.53;95902.31;1763503;81;21325;-80
2022/03/29 03:58:35;;;;;;;12.98;8.53;;;;;;;9.88;61.48;95903.31;1763477;81;20985;-80
2022/03/29 04:01:01;;;;;;;14.07;9.28;;;;;;;9.85;61.48;95901.09;1750533;81;20937;-80
2022/03/29 04:03:26;;;;;;;11.53;8.20;;;;;;;9.85;61.67;95895.91;1740622;81;20980;-80
2022/03/29 04:05:52;;;;;;;12.30;8.80;;;;;;;9.83;61.61;95899.69;1745258;81;21403;-80
2022/03/29 04:08:18;;;;;;;10.65;8.03;;;;;;;9.81;61.57;95897.78;1681348;84;20973;-81
2022/03/29 04:10:44;;;;;;;12.07;8.18;;;;;;;9.78;61.71;95895.56;1758847;81;21287;-80
2022/03/29 04:13:10;;;;;;;11.30;8.80;;;;;;;9.73;62.01;95892.71;1744369;81;20969;-80
2022/03/29 04:15:35;;;;;;;12.93;9.05;;;;;;;9.67;61.86;95890.88;1751448;81;21004;-80
2022/03/29 04:18:01;;;;;;;12.70;9.25;;;;;;;9.62;61.83;95888.86;1738302;81;21312;-80
2022/03/29 04:20:29;;;;;;;11.50;9.08;;;;;;;9.59;61.87;95891.80;1744832;81;21064;-80
2022/03/29 04:22:56;;;;;;;11.70;8.63;;;;;;;9.58;61.79;95900.08;1753865;81;21064;-80
2022/03/29 04:25:22;;;;;;;9.95;7.65;;;;;;;9.56;61.72;95912.44;1756530;82;21115;-80
2022/03/29 04:27:48;;;;;;;12.45;8.23;;;;;;;9.54;61.68;95910.52;1756174;81;20976;-80
2022/03/29 04:30:14;;;;;;;11.73;8.63;;;;;;;9.52;62.03;95915.09;1743382;81;20992;-80
2022/03/29 04:32:40;;;;;;;13.08;8.73;;;;;;;9.49;61.93;95919.86;1734249;81;21036;-80
2022/03/29 04:35:06;;;;;;;10.25;7.70;;;;;;;9.46;62.17;95914.56;1745744;82;21023;-79
2022/03/29 04:37:32;;;;;;;10.45;8.30;;;;;;;9.42;62.41;95904.72;1745705;81;21363;-79
2022/03/29 04:39:57;;;;;;;12.47;8.93;;;;;;;9.40;62.22;95909.30;1745535;81;21039;-80
2022/03/29 04:42:23;;;;;;;13.32;8.60;;;;;;;9.39;62.14;95907.19;1745824;81;20961;-79
2022/03/29 04:44:49;;;;;;;12.50;8.85;;;;;;;9.42;62.27;95903.42;1737297;81;20944;-80
2022/03/29 04:47:15;;;;;;;10.08;8.30;;;;;;;9.42;62.18;95897.74;1733012;82;21087;-80
2022/03/29 04:49:41;;;;;;;11.50;7.80;;;;;;;9.41;62.46;95892.74;1739270;81;21399;-79
2022/03/29 04:52:07;;;;;;;9.83;8.13;;;;;;;9.38;62.46;95895.22;1754591;81;20933;-79
2022/03/29 04:54:33;;;;;;;11.28;7.62;;;;;;;9.40;62.69;95891.14;1745781;81;21103;-79
2022/03/29 04:57:00;;;;;;;9.25;7.42;;;;;;;9.38;62.68;95900.41;1744053;81;21017;-80
2022/03/29 04:59:27;;;;;;;11.38;8.28;;;;;;;9.38;62.91;95894.42;1745786;81;20940;-79
2022/03/29 05:01:52;;;;;;;10.70;8.00;;;;;;;9.34;62.91;95890.10;1736958;81;21003;-79
2022/03/29 05:04:19;;;;;;;10.48;8.55;;;;;;;9.33;62.96;95889.80;1740442;81;20948;-79
2022/03/29 05:06:44;;;;;;;11.85;9.35;;;;;;;9.31;63.18;95893.87;1752439;81;20993;-79
2022/03/29 05:09:10;;;;;;;9.38;7.17;;;;;;;9.32;63.21;95890.79;1764664;81;20977;-79
2022/03/29 05:11:36;;;;;;;10.43;7.60;;;;;;;9.34;63.21;95890.10;1755425;81;20941;-80
2022/03/29 05:14:02;;;;;;;14.03;9.88;;;;;;;9.38;63.39;95890.03;1741147;81;21071;-79
2022/03/29 05:16:27;;;;;;;12.45;9.10;;;;;;;9.37;63.53;95892.32;1686464;84;21092;-80
2022/03/29 05:18:53;;;;;;;10.78;8.90;;;;;;;9.43;63.46;95890.77;1695415;83;21031;-79
2022/03/29 05:21:19;;;;;;;10.78;8.28;;;;;;;9.50;63.58;95893.73;1749608;81;21423;-79
2022/03/29 05:23:45;;;;;;;13.35;9.03;;;;;;;9.56;63.52;95898.66;1742918;81;21056;-80
2022/03/29 05:26:11;;;;;;;11.40;8.55;;;;;;;9.61;63.35;95899.73;1733604;83;21012;-79
2022/03/29 05:28:37;;;;;;;10.60;7.40;;;;;;;9.68;63.29;95901.56;1733496;82;20996;-80
2022/03/29 05:31:03;;;;;;;10.98;7.97;;;;;;;9.74;63.19;95909.39;1733566;82;21329;-80
2022/03/29 05:33:29;;;;;;;11.20;8.58;;;;;;;9.79;63.12;95907.05;1734757;81;21020;-80
2022/03/29 05:35:54;;;;;;;9.65;8.08;;;;;;;9.84;63.46;95898.20;1750996;81;21430;-80
2022/03/29 05:38:21;;;;;;;10.55;8.00;;;;;;;9.89;63.43;95897.62;1758383;81;21430;-79
2022/03/29 05:40:46;;;;;;;10.78;7.22;;;;;;;9.93;63.52;95898.88;1759795;81;20910;-80
2022/03/29 05:43:12;;;;;;;10.30;7.45;;;;;;;9.98;63.59;95896.50;1737532;81;21031;-79
2022/03/29 05:45:40;;;;;;;8.63;7.47;;;;;;;10.03;63.35;95894.13;1742743;81;20925;-80
2022/03/29 05:50:52;;;;;;;9.45;7.53;;;;;;;10.16;63.31;95909.00;1707252;83;21087;-80
2022/03/29 05:53:18;;;;;;;8.03;6.78;;;;;;;10.23;62.91;95917.15;1733368;83;21523;-80
2022/03/29 05:55:45;;;;;;;8.30;6.97;;;;;;;10.29;63.24;95918.20;1733409;83;21167;-80
2022/03/29 05:58:11;;;;;;;15.63;13.15;;;;;;;10.35;63.68;95929.61;1733466;83;21418;-80
2022/03/29 06:00:38;;;;;;;23.32;15.98;;;;;;;10.39;63.30;95937.31;1658336;85;21095;-80
2022/03/29 06:03:03;;;;;;;25.80;17.15;;;;;;;10.38;63.06;95937.81;1733625;83;21103;-80
2022/03/29 06:05:29;;;;;;;24.32;16.50;;;;;;;10.34;63.08;95935.30;1733466;82;21057;-80
2022/03/29 06:07:55;;;;;;;26.00;17.87;;;;;;;10.31;63.02;95932.29;1752169;81;21048;-80
2022/03/29 06:10:21;;;;;;;23.20;17.07;;;;;;;10.30;63.12;95934.58;1763710;81;21046;-80
2022/03/29 06:12:47;;;;;;;22.27;17.60;;;;;;;10.33;63.07;95942.79;1763536;81;21096;-79
2022/03/29 06:15:13;;;;;;;24.05;17.27;;;;;;;10.37;63.38;95938.81;1749514;81;21415;-81
2022/03/29 06:17:39;;;;;;;24.40;18.37;;;;;;;10.39;63.20;95938.12;1756397;82;21039;-80
2022/03/29 06:20:07;;;;;;;19.80;16.17;;;;;;;10.41;63.02;95941.82;1738145;81;21466;-80
2022/03/29 06:22:44;;;;;;;24.87;17.30;;;;;;;10.42;63.10;95939.06;1750343;81;20985;-80
2022/03/29 06:25:12;;;;;;;23.20;16.80;;;;;;;10.42;62.39;95937.77;1737829;81;20953;-80
2022/03/29 06:27:37;;;;;;;19.75;15.93;;;;;;;10.46;62.62;95939.47;1735951;81;20980;-80
2022/03/29 06:30:05;;;;;;;24.43;17.32;;;;;;;10.48;62.62;95936.98;1733142;81;21367;-80
2022/03/29 06:32:30;;;;;;;25.02;19.15;;;;;;;10.49;62.78;95955.97;1739862;81;21468;-80
2022/03/29 06:34:56;;;;;;;26.30;20.17;;;;;;;10.51;62.81;95956.58;1676371;83;20977;-80
2022/03/29 06:37:22;;;;;;;29.25;21.20;;;;;;;10.57;62.59;95953.70;1749608;81;20985;-80
2022/03/29 06:39:48;;;;;;;28.32;21.10;;;;;;;10.60;62.75;95951.55;1748137;81;20929;-80
2022/03/29 06:42:18;;;;;;;26.23;19.37;;;;;;;10.65;62.77;95956.95;1748610;81;21390;-80
2022/03/29 06:44:41;;;;;;;25.15;18.77;;;;;;;10.68;62.90;95951.38;1744697;81;20985;-80
2022/03/29 06:47:12;;;;;;;22.65;18.73;;;;;;;10.68;62.45;95944.88;1750884;81;21052;-80
2022/03/29 06:49:39;;;;;;;;;;;;;;;10.67;62.10;95946.37;1757465;81;21011;-79
2022/03/29 06:52:07;;;;;;;20.52;16.35;;;;;;;10.67;62.14;95951.06;1754213;81;20374;-80
2022/03/29 06:54:33;;;;;;;23.45;16.45;;;;;;;10.70;62.22;95936.88;1679993;85;21068;-79
2022/03/29 06:56:59;;;;;;;22.37;17.80;;;;;;;10.71;62.12;95935.39;1758395;81;20960;-80
2022/03/29 06:59:24;;;;;;;22.77;18.62;;;;;;;10.72;62.15;95939.59;1746890;81;20964;-80
2022/03/29 07:01:50;;;;;;;26.17;20.97;;;;;;;10.72;62.15;95942.69;1746170;81;20980;-80
2022/03/29 07:04:16;;;;;;;24.02;20.85;;;;;;;10.69;62.02;95943.08;1734782;81;21466;-80
2022/03/29 07:06:42;;;;;;;29.00;22.15;;;;;;;10.68;62.06;95942.28;1738539;81;20955;-80
2022/03/29 07:50:11;;;;;;;23.25;18.90;;;;;;;11.18;62.02;95906.96;1751880;80;23432;-81
2022/03/29 07:52:41;;;;;;;22.82;19.12;;;;;;;11.33;61.73;95904.49;1749367;81;20987;-81
2022/03/29 07:55:10;;;;;;;24.40;19.67;;;;;;;11.52;61.21;95907.31;1742314;81;21003;-81
2022/03/29 07:57:35;;;;;;;26.62;21.35;;;;;;;11.65;60.92;95896.92;1736461;81;20994;-81
2022/03/29 08:00:31;;;;;;;27.22;22.75;;;;;;;11.79;60.92;95899.86;1742611;81;21337;-80
2022/03/29 08:02:30;;;;;;;28.40;22.85;;;;;;;11.95;60.81;95899.45;1750999;81;21381;-81
2022/03/29 08:04:56;;;;;;;27.77;22.13;;;;;;;12.01;60.50;95897.33;1750754;81;20991;-80
2022/03/29 08:07:22;;;;;;;24.98;20.37;;;;;;;12.09;60.01;95892.43;1751778;81;20959;-81
2022/03/29 08:09:47;;;;;;;26.75;19.52;;;;;;;12.15;59.73;95896.02;1749994;81;20975;-81
2022/03/29 08:12:13;;;;;;;24.25;18.25;;;;;;;12.19;59.57;95892.80;1754030;81;21374;-81
2022/03/29 08:14:40;;;;;;;19.15;16.00;;;;;;;12.28;59.65;95898.61;1746497;81;21058;-81
2022/03/29 08:17:06;;;;;;;24.50;16.07;;;;;;;12.32;59.28;95899.79;1757891;81;20990;-81
2022/03/29 08:19:31;;;;;;;16.27;13.83;;;;;;;12.28;58.90;95896.80;1764562;81;21740;-81
2022/03/29 08:21:57;;;;;;;22.45;15.93;;;;;;;12.29;58.51;95901.50;1769351;80;21329;-81
2022/03/29 08:24:24;;;;;;;20.50;16.20;;;;;;;12.26;58.30;95896.70;1787063;80;20892;-81
2022/03/29 08:26:53;;;;;;;22.13;14.87;;;;;;;12.23;58.54;95904.94;1744829;81;20968;-81
2022/03/29 08:29:21;;;;;;;19.67;14.70;;;;;;;12.21;57.47;95901.73;1777015;80;21022;-81
2022/03/29 08:31:49;;;;;;;19.00;14.90;;;;;;;12.18;57.94;95900.81;1777781;80;20967;-81
2022/03/29 08:34:16;;;;;;;20.17;16.07;;;;;;;12.15;57.93;95896.02;1768819;80;21008;-81
2022/03/29 08:36:41;;;;;;;20.90;14.70;;;;;;;12.18;58.30;95896.91;1762470;80;21083;-81
2022/03/29 08:39:08;;;;;;;20.25;14.93;;;;;;;12.20;58.05;95902.23;1759583;81;21050;-81
2022/03/29 08:41:46;;;;;;;18.48;14.25;;;;;;;12.22;57.83;95900.23;1768633;81;20967;-81
2022/03/29 08:44:12;;;;;;;18.62;14.15;;;;;;;12.18;57.77;95893.00;1780219;80;20962;-83
2022/03/29 08:46:41;;;;;;;21.15;15.43;;;;;;;12.20;58.21;95894.89;1785793;80;21403;-83
2022/03/29 08:49:08;;;;;;;19.87;16.15;;;;;;;12.22;57.99;95893.72;1754944;81;21083;-83
2022/03/29 08:51:36;;;;;;;19.50;15.50;;;;;;;12.29;58.29;95892.39;1747938;81;20999;-83
2022/03/29 08:54:02;;;;;;;23.65;16.57;;;;;;;12.28;57.90;95890.28;1750722;81;21055;-83
2022/03/29 10:40:04;;;;;;;22.82;17.92;;;;;;;13.86;54.45;95805.62;1808597;78;23033;-80
2022/03/29 10:42:43;;;;;;;22.87;16.70;;;;;;;13.84;54.17;95811.58;1758573;81;20971;-81
2022/03/29 10:45:24;;;;;;;24.55;18.00;;;;;;;13.79;54.42;95798.34;1750420;81;20975;-81
2022/03/29 10:48:11;;;;;;;22.98;15.98;;;;;;;13.62;53.64;95800.70;1727069;81;21039;-81
2022/03/29 10:50:55;;;;;;;22.25;16.50;;;;;;;13.36;54.05;95800.95;1732419;82;21016;-84
2022/03/29 10:53:47;;;;;;;24.25;16.32;;;;;;;13.18;54.88;95805.09;1715210;82;20999;-81
2022/03/29 10:56:23;;;;;;;24.45;17.77;;;;;;;13.12;55.06;95806.39;1712553;83;21031;-81
2022/03/29 10:59:10;;;;;;;27.32;18.75;;;;;;;13.06;55.52;95792.40;1718121;82;21432;-81
2022/03/29 11:01:40;;;;;;;22.70;16.15;;;;;;;13.08;55.78;95790.88;1727347;82;21384;-81
2022/03/29 11:04:09;;;;;;;24.12;17.10;;;;;;;13.11;55.54;95789.95;1717412;82;20960;-81
2022/03/29 11:06:35;;;;;;;23.67;16.73;;;;;;;13.10;55.49;95784.44;1722765;82;20999;-83
2022/03/29 11:09:10;;;;;;;24.70;17.27;;;;;;;13.03;55.31;95779.78;1760181;81;20984;-81
2022/03/29 11:11:43;;;;;;;22.05;16.20;;;;;;;12.86;55.50;95791.23;1706191;82;20982;-80
2022/03/29 11:14:33;;;;;;;20.77;16.35;;;;;;;12.73;56.09;95797.02;1736057;82;21047;-80
2022/03/29 11:17:13;;;;;;;22.90;17.00;;;;;;;12.58;56.38;95813.73;1735210;82;21007;-80
2022/03/29 11:19:50;;;;;;;24.92;17.37;;;;;;;12.42;56.54;95819.41;1731672;82;21956;-80
2022/03/29 11:22:39;;;;;;;25.70;18.57;;;;;;;12.38;57.84;95809.11;1734333;82;21002;-80
2022/03/29 11:25:10;;;;;;;24.07;17.55;;;;;;;12.30;58.31;95793.19;1734789;81;21012;-80
2022/03/29 11:27:37;;;;;;;27.10;19.17;;;;;;;12.26;59.08;95788.61;1747086;81;21401;-80
2022/03/29 11:30:09;;;;;;;24.30;17.87;;;;;;;12.23;58.62;95787.22;1751817;81;21015;-80
2022/03/29 11:32:36;;;;;;;26.85;18.73;;;;;;;12.25;60.29;95794.83;1731112;81;21410;-80
2022/03/29 11:35:05;;;;;;;23.55;17.60;;;;;;;12.28;60.40;95807.44;1758747;81;21011;-80
2022/03/29 11:37:33;;;;;;;29.57;19.92;;;;;;;12.27;60.86;95801.92;1744172;81;21035;-81
2022/03/29 11:40:03;;;;;;;29.57;19.98;;;;;;;12.26;60.58;95766.47;1743742;81;21018;-80
2022/03/29 11:42:47;;;;;;;30.48;21.23;;;;;;;12.21;60.76;95750.17;1739915;82;21387;-80
2022/03/29 11:45:13;;;;;;;29.85;19.50;;;;;;;12.22;61.55;95741.34;1739173;81;20986;-80
2022/03/29 11:47:39;;;;;;;23.67;18.57;;;;;;;12.19;61.58;95748.75;1744098;81;21006;-80
2022/03/29 11:50:06;;;;;;;26.93;18.37;;;;;;;12.15;61.31;95763.20;1741924;82;21011;-80
2022/03/29 11:52:35;;;;;;;28.15;20.37;;;;;;;12.08;62.15;95765.04;1746527;81;20987;-80
2022/03/29 11:55:04;;;;;;;31.48;22.85;;;;;;;11.98;62.56;95762.86;1746535;81;20963;-81
2022/03/29 11:57:30;;;;;;;33.95;23.27;;;;;;;11.80;63.58;95761.41;1721943;81;21046;-80
2022/03/29 11:59:57;;;;;;;28.50;20.82;;;;;;;11.73;63.84;95747.09;1744579;82;21377;-80
2022/03/29 12:02:25;;;;;;;28.55;21.23;;;;;;;11.67;63.89;95730.97;1740093;81;21034;-80
2022/03/29 12:04:51;;;;;;;32.73;21.52;;;;;;;11.63;64.53;95737.59;1739623;81;21018;-80
2022/03/29 12:07:36;;;;;;;27.85;22.02;;;;;;;11.61;65.97;95748.20;1743479;81;21066;-81
2022/03/29 12:10:01;;;;;;;31.15;23.83;;;;;;;11.54;66.53;95740.09;1734623;81;20978;-81
2022/03/29 12:12:27;;;;;;;28.07;21.93;;;;;;;11.45;67.03;95733.52;1744937;81;21010;-80
2022/03/29 12:15:03;;;;;;;39.23;27.50;;;;;;;11.40;68.44;95721.13;1743720;82;20990;-82
2022/03/29 12:17:29;;;;;;;33.53;23.70;;;;;;;11.35;68.19;95726.13;1743772;82;21340;-81
2022/03/29 12:19:55;;;;;;;38.40;27.07;;;;;;;11.28;68.67;95726.64;1744131;81;21004;-82
2022/03/29 12:22:23;;;;;;;51.77;34.45;;;;;;;11.21;69.30;95722.73;1741367;81;20983;-81
2022/03/29 12:24:54;;;;;;;48.85;34.88;;;;;;;11.26;68.97;95713.84;1744855;81;20987;-81
2022/03/29 12:27:18;;;;;;;38.48;28.57;;;;;;;11.36;68.65;95717.31;1745212;81;21044;-81
2022/03/29 12:29:48;;;;;;;31.17;23.40;;;;;;;11.43;69.29;95717.62;1746316;82;21022;-81
2022/03/29 12:32:16;;;;;;;32.42;22.00;;;;;;;11.41;69.27;95712.33;1741931;81;20970;-81
2022/03/29 12:34:41;;;;;;;28.95;21.40;;;;;;;11.34;69.41;95712.82;1746642;82;20959;-81
2022/03/29 12:37:13;;;;;;;27.42;20.37;;;;;;;11.32;69.91;95711.72;1745747;81;20990;-81
2022/03/29 12:39:41;;;;;;;30.52;21.75;;;;;;;11.42;70.10;95710.82;1720934;82;20995;-81
2022/03/29 12:42:12;;;;;;;30.37;22.37;;;;;;;11.53;68.68;95700.27;1734666;83;21311;-81
2022/03/29 12:44:48;;;;;;;33.98;22.98;;;;;;;11.62;68.70;95702.16;1734932;82;21038;-81
2022/03/29 12:47:16;;;;;;;30.10;22.73;;;;;;;11.75;69.53;95702.64;1715846;83;21087;-81
2022/03/29 12:49:43;;;;;;;32.38;23.22;;;;;;;11.87;69.81;95692.69;1734693;83;21106;-81
2022/03/29 12:52:11;;;;;;;32.03;23.20;;;;;;;11.96;69.15;95686.77;1709167;83;21481;-81
2022/03/29 12:54:46;;;;;;;27.95;21.05;;;;;;;12.01;69.23;95687.73;1718646;83;21054;-81
2022/03/29 12:57:18;;;;;;;27.20;21.25;;;;;;;12.05;68.97;95682.13;1715868;83;21380;-81
2022/03/29 12:59:47;;;;;;;30.88;21.57;;;;;;;12.01;69.12;95679.92;1718184;83;21011;-81
2022/03/29 13:02:25;;;;;;;29.82;22.05;;;;;;;12.07;68.89;95681.42;1725490;82;20972;-81
2022/03/29 13:05:00;;;;;;;28.60;21.77;;;;;;;12.12;69.45;95672.47;1725636;83;21080;-81
2022/03/29 13:07:50;;;;;;;26.37;19.55;;;;;;;12.13;67.94;95665.75;1734883;83;21129;-81
2022/03/29 13:10:26;;;;;;;29.87;21.73;;;;;;;12.20;68.06;95663.09;1729111;83;21388;-81
2022/03/29 13:13:05;;;;;;;28.15;21.10;;;;;;;12.17;68.05;95667.42;1706420;83;20928;-80
2022/03/29 13:15:55;;;;;;;29.10;20.75;;;;;;;12.20;66.78;95656.58;1711932;83;21062;-80
2022/03/29 13:18:31;;;;;;;26.90;20.25;;;;;;;12.25;66.92;95650.27;1726670;81;21008;-80
2022/03/29 13:21:22;;;;;;;28.12;21.57;;;;;;;12.33;66.78;95650.00;1711644;83;20995;-80
2022/03/29 13:24:15;;;;;;;29.63;20.77;;;;;;;12.35;66.46;95645.88;1728302;81;20973;-81
2022/03/29 13:26:48;;;;;;;30.80;22.05;;;;;;;12.32;66.49;95646.59;1714767;83;21007;-80
2022/03/29 13:29:14;;;;;;;32.35;22.60;;;;;;;12.27;66.54;95642.53;1723064;81;21022;-80
2022/03/29 13:31:41;;;;;;;30.37;22.13;;;;;;;12.27;65.74;95640.44;1711276;83;21310;-80
2022/03/29 13:34:09;;;;;;;29.87;22.07;;;;;;;12.31;65.51;95631.98;1718481;81;20962;-80
2022/03/29 13:36:34;;;;;;;29.12;21.57;;;;;;;12.33;64.75;95632.56;1723752;81;21028;-80
2022/03/29 13:39:03;;;;;;;30.02;22.55;;;;;;;12.33;65.03;95627.86;1728659;81;21499;-80
2022/03/29 13:41:29;;;;;;;32.35;23.90;;;;;;;12.34;66.24;95632.06;1737018;81;21326;-80
2022/03/29 13:43:56;;;;;;;32.48;23.10;;;;;;;12.39;66.95;95623.63;1738857;82;21018;-80
2022/03/29 13:46:22;;;;;;;30.77;22.05;;;;;;;12.50;66.39;95618.52;1737164;82;21006;-80
2022/03/29 13:48:48;;;;;;;32.23;23.22;;;;;;;12.55;66.47;95618.70;1736932;82;20972;-80
2022/03/29 13:51:17;;;;;;;31.25;23.70;;;;;;;12.66;67.00;95615.89;1733685;82;21404;-80
2022/03/29 13:53:43;;;;;;;30.10;22.90;;;;;;;12.73;66.37;95614.55;1737570;82;20985;-80
2022/03/29 13:56:09;;;;;;;29.30;22.25;;;;;;;12.78;66.31;95614.19;1765997;80;21397;-80